sensor_id;sensor_type;location;lat;lon;timestamp;temperature;humidity
23137;DHT22;11737;50.558;7.258;2023-01-23T00:01:39;5.60;99.90
23137;DHT22;11737;50.558;7.258;2023-01-23T00:04:08;5.50;99.90
23137;DHT22;11737;50.558;7.258;2023-01-23T00:06:36;5.50;99.90
23137;DHT22;11737;50.558;7.258;2023-01-23T00:09:03;5.70;99.90
23137;DHT22;11737;50.558;7.258;2023-01-23T00:11:31;5.80;99.90
23137;DHT22;11737;50.558;7.258;2023-01-23T00:14:00;5.80;99.90
23137;DHT22;11737;50.558;7.258;2023-01-23T00:16:30;5.90;99.90
23137;DHT22;11737;50.558;7.258;2023-01-23T00:18:58;5.90;99.90
23137;DHT22;11737;50.558;7.258;2023-01-23T00:21:27;5.70;99.90
23137;DHT22;11737;50.558;7.258;2023-01-23T00:23:57;5.50;99.90
23137;DHT22;11737;50.558;7.258;2023-01-23T00:26:27;5.30;99.90
23137;DHT22;11737;50.558;7.258;2023-01-23T00:28:55;5.10;99.90
23137;DHT22;11737;50.558;7.258;2023-01-23T00:31:28;4.90;99.90
23137;DHT22;11737;50.558;7.258;2023-01-23T00:36:44;4.80;99.90
23137;DHT22;11737;50.558;7.258;2023-01-23T00:39:15;4.60;99.90
23137;DHT22;11737;50.558;7.258;2023-01-23T00:41:49;4.60;99.90
23137;DHT22;11737;50.558;7.258;2023-01-23T00:44:12;4.60;99.90
23137;DHT22;11737;50.558;7.258;2023-01-23T00:46:40;4.70;99.90
23137;DHT22;11737;50.558;7.258;2023-01-23T00:49:08;4.90;99.90
23137;DHT22;11737;50.558;7.258;2023-01-23T00:51:35;5.20;99.90
23137;DHT22;11737;50.558;7.258;2023-01-23T00:54:03;5.40;99.90
23137;DHT22;11737;50.558;7.258;2023-01-23T00:56:31;5.50;99.90
23137;DHT22;11737;50.558;7.258;2023-01-23T00:58:59;5.60;99.90
23137;DHT22;11737;50.558;7.258;2023-01-23T01:01:26;5.70;99.90
23137;DHT22;11737;50.558;7.258;2023-01-23T01:03:56;5.60;99.90
23137;DHT22;11737;50.558;7.258;2023-01-23T01:06:23;5.50;99.90
23137;DHT22;11737;50.558;7.258;2023-01-23T01:08:51;5.30;99.90
23137;DHT22;11737;50.558;7.258;2023-01-23T01:11:18;5.20;99.90
23137;DHT22;11737;50.558;7.258;2023-01-23T01:13:46;5.30;99.90
23137;DHT22;11737;50.558;7.258;2023-01-23T01:16:13;5.40;99.90
23137;DHT22;11737;50.558;7.258;2023-01-23T01:18:41;5.50;99.90
23137;DHT22;11737;50.558;7.258;2023-01-23T01:21:13;5.60;99.90
23137;DHT22;11737;50.558;7.258;2023-01-23T01:23:40;5.70;99.90
23137;DHT22;11737;50.558;7.258;2023-01-23T01:26:09;5.80;99.90
23137;DHT22;11737;50.558;7.258;2023-01-23T01:28:38;5.90;99.90
23137;DHT22;11737;50.558;7.258;2023-01-23T01:31:11;5.90;99.90
23137;DHT22;11737;50.558;7.258;2023-01-23T01:33:40;5.80;99.90
23137;DHT22;11737;50.558;7.258;2023-01-23T01:36:10;5.70;99.90
23137;DHT22;11737;50.558;7.258;2023-01-23T01:38:38;5.70;99.90
23137;DHT22;11737;50.558;7.258;2023-01-23T01:41:06;5.70;99.90
23137;DHT22;11737;50.558;7.258;2023-01-23T01:43:35;5.80;99.90
23137;DHT22;11737;50.558;7.258;2023-01-23T01:46:23;5.90;99.90
23137;DHT22;11737;50.558;7.258;2023-01-23T01:51:51;5.40;99.90
23137;DHT22;11737;50.558;7.258;2023-01-23T01:57:22;5.00;99.90
23137;DHT22;11737;50.558;7.258;2023-01-23T01:59:56;4.90;99.90
23137;DHT22;11737;50.558;7.258;2023-01-23T02:02:49;4.80;99.90
23137;DHT22;11737;50.558;7.258;2023-01-23T02:05:20;4.80;99.90
23137;DHT22;11737;50.558;7.258;2023-01-23T02:10:28;5.10;99.90
23137;DHT22;11737;50.558;7.258;2023-01-23T02:15:49;5.30;99.90
23137;DHT22;11737;50.558;7.258;2023-01-23T02:18:17;5.40;99.90
23137;DHT22;11737;50.558;7.258;2023-01-23T02:20:46;5.40;99.90
23137;DHT22;11737;50.558;7.258;2023-01-23T02:26:08;5.30;99.90
23137;DHT22;11737;50.558;7.258;2023-01-23T02:28:41;5.30;99.90
23137;DHT22;11737;50.558;7.258;2023-01-23T02:31:28;5.30;99.90
23137;DHT22;11737;50.558;7.258;2023-01-23T02:33:57;5.20;99.90
23137;DHT22;11737;50.558;7.258;2023-01-23T02:36:27;5.10;99.90
23137;DHT22;11737;50.558;7.258;2023-01-23T02:38:59;5.00;99.90
23137;DHT22;11737;50.558;7.258;2023-01-23T02:41:28;4.90;99.90
23137;DHT22;11737;50.558;7.258;2023-01-23T02:43:59;4.80;99.90
23137;DHT22;11737;50.558;7.258;2023-01-23T02:46:27;4.70;99.90
23137;DHT22;11737;50.558;7.258;2023-01-23T02:48:54;4.60;99.90
23137;DHT22;11737;50.558;7.258;2023-01-23T02:51:22;4.50;99.90
23137;DHT22;11737;50.558;7.258;2023-01-23T02:53:49;4.50;99.90
23137;DHT22;11737;50.558;7.258;2023-01-23T02:56:17;4.50;99.90
23137;DHT22;11737;50.558;7.258;2023-01-23T02:58:45;4.50;99.90
23137;DHT22;11737;50.558;7.258;2023-01-23T03:01:30;4.50;99.90
23137;DHT22;11737;50.558;7.258;2023-01-23T03:03:59;4.60;99.90
23137;DHT22;11737;50.558;7.258;2023-01-23T03:06:30;4.70;99.90
23137;DHT22;11737;50.558;7.258;2023-01-23T03:08:59;4.70;99.90
23137;DHT22;11737;50.558;7.258;2023-01-23T03:11:28;4.50;99.90
23137;DHT22;11737;50.558;7.258;2023-01-23T03:13:56;4.40;99.90
23137;DHT22;11737;50.558;7.258;2023-01-23T03:16:23;4.30;99.90
23137;DHT22;11737;50.558;7.258;2023-01-23T03:18:51;4.10;99.90
23137;DHT22;11737;50.558;7.258;2023-01-23T03:21:18;4.00;99.90
23137;DHT22;11737;50.558;7.258;2023-01-23T03:23:46;4.00;99.90
23137;DHT22;11737;50.558;7.258;2023-01-23T03:26:14;4.00;99.90
23137;DHT22;11737;50.558;7.258;2023-01-23T03:28:43;4.00;99.90
23137;DHT22;11737;50.558;7.258;2023-01-23T03:31:29;4.00;99.90
23137;DHT22;11737;50.558;7.258;2023-01-23T03:33:56;4.00;99.90
23137;DHT22;11737;50.558;7.258;2023-01-23T03:36:23;4.10;99.90
23137;DHT22;11737;50.558;7.258;2023-01-23T03:38:51;4.00;99.90
23137;DHT22;11737;50.558;7.258;2023-01-23T03:41:36;4.00;99.90
23137;DHT22;11737;50.558;7.258;2023-01-23T03:44:06;4.00;99.90
23137;DHT22;11737;50.558;7.258;2023-01-23T03:46:34;4.00;99.90
23137;DHT22;11737;50.558;7.258;2023-01-23T03:49:02;4.10;99.90
23137;DHT22;11737;50.558;7.258;2023-01-23T03:51:29;4.20;99.90
23137;DHT22;11737;50.558;7.258;2023-01-23T03:53:57;4.50;99.90
23137;DHT22;11737;50.558;7.258;2023-01-23T03:56:24;4.80;99.90
23137;DHT22;11737;50.558;7.258;2023-01-23T03:58:52;5.00;99.90
23137;DHT22;11737;50.558;7.258;2023-01-23T04:01:19;5.20;99.90
23137;DHT22;11737;50.558;7.258;2023-01-23T04:03:49;5.30;99.90
23137;DHT22;11737;50.558;7.258;2023-01-23T04:09:05;5.30;99.90
23137;DHT22;11737;50.558;7.258;2023-01-23T04:11:32;5.30;99.90
23137;DHT22;11737;50.558;7.258;2023-01-23T04:14:00;5.20;99.90
23137;DHT22;11737;50.558;7.258;2023-01-23T04:16:27;5.00;99.90
23137;DHT22;11737;50.558;7.258;2023-01-23T04:18:55;4.80;99.90
23137;DHT22;11737;50.558;7.258;2023-01-23T04:21:22;4.80;99.90
23137;DHT22;11737;50.558;7.258;2023-01-23T04:23:51;4.80;99.90
23137;DHT22;11737;50.558;7.258;2023-01-23T04:26:18;4.90;99.90
23137;DHT22;11737;50.558;7.258;2023-01-23T04:28:45;4.90;99.90
23137;DHT22;11737;50.558;7.258;2023-01-23T04:31:13;4.80;99.90
23137;DHT22;11737;50.558;7.258;2023-01-23T04:33:40;4.60;99.90
23137;DHT22;11737;50.558;7.258;2023-01-23T04:36:09;4.40;99.90
23137;DHT22;11737;50.558;7.258;2023-01-23T04:38:37;4.30;99.90
23137;DHT22;11737;50.558;7.258;2023-01-23T04:41:04;4.10;99.90
23137;DHT22;11737;50.558;7.258;2023-01-23T04:43:32;4.10;99.90
23137;DHT22;11737;50.558;7.258;2023-01-23T04:46:01;4.00;99.90
23137;DHT22;11737;50.558;7.258;2023-01-23T04:48:28;3.90;99.90
23137;DHT22;11737;50.558;7.258;2023-01-23T04:50:56;3.90;99.90
23137;DHT22;11737;50.558;7.258;2023-01-23T04:53:23;3.80;99.90
23137;DHT22;11737;50.558;7.258;2023-01-23T04:55:51;3.90;99.90
23137;DHT22;11737;50.558;7.258;2023-01-23T04:58:19;3.90;99.90
23137;DHT22;11737;50.558;7.258;2023-01-23T05:00:46;3.90;99.90
23137;DHT22;11737;50.558;7.258;2023-01-23T05:03:14;4.10;99.90
23137;DHT22;11737;50.558;7.258;2023-01-23T05:05:42;4.10;99.90
23137;DHT22;11737;50.558;7.258;2023-01-23T05:08:10;4.10;99.90
23137;DHT22;11737;50.558;7.258;2023-01-23T05:10:39;4.00;99.90
23137;DHT22;11737;50.558;7.258;2023-01-23T05:13:06;3.90;99.90
23137;DHT22;11737;50.558;7.258;2023-01-23T05:15:35;4.10;99.90
23137;DHT22;11737;50.558;7.258;2023-01-23T05:18:03;4.10;99.90
23137;DHT22;11737;50.558;7.258;2023-01-23T05:20:30;4.10;99.90
23137;DHT22;11737;50.558;7.258;2023-01-23T05:22:58;4.00;99.90
23137;DHT22;11737;50.558;7.258;2023-01-23T05:25:27;3.90;99.90
23137;DHT22;11737;50.558;7.258;2023-01-23T05:27:54;4.00;99.90
23137;DHT22;11737;50.558;7.258;2023-01-23T05:30:22;4.00;99.90
23137;DHT22;11737;50.558;7.258;2023-01-23T05:32:50;4.00;99.90
23137;DHT22;11737;50.558;7.258;2023-01-23T05:35:17;3.90;99.90
23137;DHT22;11737;50.558;7.258;2023-01-23T05:40:36;4.00;99.90
23137;DHT22;11737;50.558;7.258;2023-01-23T05:43:04;4.00;99.90
23137;DHT22;11737;50.558;7.258;2023-01-23T05:45:32;4.00;99.90
23137;DHT22;11737;50.558;7.258;2023-01-23T05:48:00;4.00;99.90
23137;DHT22;11737;50.558;7.258;2023-01-23T05:50:27;4.00;99.90
23137;DHT22;11737;50.558;7.258;2023-01-23T05:52:55;4.00;99.90
23137;DHT22;11737;50.558;7.258;2023-01-23T05:55:22;4.00;99.90
23137;DHT22;11737;50.558;7.258;2023-01-23T05:57:50;4.10;99.90
23137;DHT22;11737;50.558;7.258;2023-01-23T06:00:18;4.10;99.90
23137;DHT22;11737;50.558;7.258;2023-01-23T06:02:45;4.10;99.90
23137;DHT22;11737;50.558;7.258;2023-01-23T06:05:13;4.10;99.90
23137;DHT22;11737;50.558;7.258;2023-01-23T06:07:40;4.20;99.90
23137;DHT22;11737;50.558;7.258;2023-01-23T06:10:09;4.20;99.90
23137;DHT22;11737;50.558;7.258;2023-01-23T06:12:36;4.20;99.90
23137;DHT22;11737;50.558;7.258;2023-01-23T06:15:04;4.10;99.90
23137;DHT22;11737;50.558;7.258;2023-01-23T06:17:32;4.10;99.90
23137;DHT22;11737;50.558;7.258;2023-01-23T06:19:59;4.10;99.90
23137;DHT22;11737;50.558;7.258;2023-01-23T06:22:27;4.10;99.90
23137;DHT22;11737;50.558;7.258;2023-01-23T06:24:54;4.20;99.90
23137;DHT22;11737;50.558;7.258;2023-01-23T06:27:22;4.10;99.90
23137;DHT22;11737;50.558;7.258;2023-01-23T06:29:49;4.10;99.90
23137;DHT22;11737;50.558;7.258;2023-01-23T06:32:17;4.10;99.90
23137;DHT22;11737;50.558;7.258;2023-01-23T06:34:44;4.20;99.90
23137;DHT22;11737;50.558;7.258;2023-01-23T06:37:12;4.20;99.90
23137;DHT22;11737;50.558;7.258;2023-01-23T06:39:39;4.20;99.90
23137;DHT22;11737;50.558;7.258;2023-01-23T06:42:08;4.20;99.90
23137;DHT22;11737;50.558;7.258;2023-01-23T06:44:36;4.10;99.90
23137;DHT22;11737;50.558;7.258;2023-01-23T06:47:04;4.10;99.90
23137;DHT22;11737;50.558;7.258;2023-01-23T06:49:32;4.20;99.90
23137;DHT22;11737;50.558;7.258;2023-01-23T06:51:59;4.20;99.90
23137;DHT22;11737;50.558;7.258;2023-01-23T06:54:27;4.20;99.90
23137;DHT22;11737;50.558;7.258;2023-01-23T06:56:54;4.30;99.90
23137;DHT22;11737;50.558;7.258;2023-01-23T06:59:22;4.30;99.90
23137;DHT22;11737;50.558;7.258;2023-01-23T07:01:49;4.30;99.90
23137;DHT22;11737;50.558;7.258;2023-01-23T07:04:17;4.40;99.90
23137;DHT22;11737;50.558;7.258;2023-01-23T07:06:44;4.30;99.90
23137;DHT22;11737;50.558;7.258;2023-01-23T07:09:12;4.30;99.90
23137;DHT22;11737;50.558;7.258;2023-01-23T07:11:39;4.30;99.90
23137;DHT22;11737;50.558;7.258;2023-01-23T07:14:07;4.30;99.90
23137;DHT22;11737;50.558;7.258;2023-01-23T07:16:34;4.40;99.90
23137;DHT22;11737;50.558;7.258;2023-01-23T07:19:03;4.40;99.90
23137;DHT22;11737;50.558;7.258;2023-01-23T07:21:31;4.50;99.90
23137;DHT22;11737;50.558;7.258;2023-01-23T07:23:59;4.40;99.90
23137;DHT22;11737;50.558;7.258;2023-01-23T07:26:26;4.40;99.90
23137;DHT22;11737;50.558;7.258;2023-01-23T07:28:54;4.40;99.90
23137;DHT22;11737;50.558;7.258;2023-01-23T07:31:22;4.30;99.90
23137;DHT22;11737;50.558;7.258;2023-01-23T07:33:49;4.40;99.90
23137;DHT22;11737;50.558;7.258;2023-01-23T07:36:17;4.40;99.90
23137;DHT22;11737;50.558;7.258;2023-01-23T07:38:44;4.40;99.90
23137;DHT22;11737;50.558;7.258;2023-01-23T07:41:12;4.30;99.90
23137;DHT22;11737;50.558;7.258;2023-01-23T07:43:39;4.30;99.90
23137;DHT22;11737;50.558;7.258;2023-01-23T07:46:07;4.30;99.90
23137;DHT22;11737;50.558;7.258;2023-01-23T07:48:36;4.20;99.90
23137;DHT22;11737;50.558;7.258;2023-01-23T07:51:05;4.30;99.90
23137;DHT22;11737;50.558;7.258;2023-01-23T07:53:33;4.30;99.90
23137;DHT22;11737;50.558;7.258;2023-01-23T07:56:05;4.30;99.90
23137;DHT22;11737;50.558;7.258;2023-01-23T07:58:32;4.30;99.90
23137;DHT22;11737;50.558;7.258;2023-01-23T08:01:08;4.30;99.90
23137;DHT22;11737;50.558;7.258;2023-01-23T08:03:36;4.30;99.90
23137;DHT22;11737;50.558;7.258;2023-01-23T08:06:03;4.30;99.90
23137;DHT22;11737;50.558;7.258;2023-01-23T08:08:31;4.50;99.90
23137;DHT22;11737;50.558;7.258;2023-01-23T08:11:01;4.60;99.90
23137;DHT22;11737;50.558;7.258;2023-01-23T08:13:27;4.60;99.90
23137;DHT22;11737;50.558;7.258;2023-01-23T08:15:57;4.50;99.90
23137;DHT22;11737;50.558;7.258;2023-01-23T08:18:25;4.40;99.90
23137;DHT22;11737;50.558;7.258;2023-01-23T08:20:54;4.40;99.90
23137;DHT22;11737;50.558;7.258;2023-01-23T08:23:32;4.60;99.90
23137;DHT22;11737;50.558;7.258;2023-01-23T08:26:03;4.80;99.90
23137;DHT22;11737;50.558;7.258;2023-01-23T08:28:31;5.00;99.90
23137;DHT22;11737;50.558;7.258;2023-01-23T08:31:01;5.00;99.90
23137;DHT22;11737;50.558;7.258;2023-01-23T08:33:29;4.90;99.90
23137;DHT22;11737;50.558;7.258;2023-01-23T08:35:58;4.80;99.90
23137;DHT22;11737;50.558;7.258;2023-01-23T08:38:26;4.70;99.90
23137;DHT22;11737;50.558;7.258;2023-01-23T08:40:58;4.70;99.90
23137;DHT22;11737;50.558;7.258;2023-01-23T08:43:25;4.70;99.90
23137;DHT22;11737;50.558;7.258;2023-01-23T08:45:54;4.80;99.90
23137;DHT22;11737;50.558;7.258;2023-01-23T08:48:24;5.00;99.90
23137;DHT22;11737;50.558;7.258;2023-01-23T08:51:11;5.30;99.90
23137;DHT22;11737;50.558;7.258;2023-01-23T08:53:40;5.60;99.90
23137;DHT22;11737;50.558;7.258;2023-01-23T08:56:17;5.60;99.90
23137;DHT22;11737;50.558;7.258;2023-01-23T08:59:03;5.50;99.90
23137;DHT22;11737;50.558;7.258;2023-01-23T09:01:30;5.30;99.90
23137;DHT22;11737;50.558;7.258;2023-01-23T09:03:58;5.30;99.90
23137;DHT22;11737;50.558;7.258;2023-01-23T09:06:25;5.30;99.90
23137;DHT22;11737;50.558;7.258;2023-01-23T09:08:53;5.40;99.90
23137;DHT22;11737;50.558;7.258;2023-01-23T09:11:20;5.60;99.90
23137;DHT22;11737;50.558;7.258;2023-01-23T09:13:49;5.90;99.90
23137;DHT22;11737;50.558;7.258;2023-01-23T09:16:16;6.20;99.90
23137;DHT22;11737;50.558;7.258;2023-01-23T09:18:44;6.60;99.90
23137;DHT22;11737;50.558;7.258;2023-01-23T09:21:15;6.70;99.90
23137;DHT22;11737;50.558;7.258;2023-01-23T09:23:43;6.70;99.90
23137;DHT22;11737;50.558;7.258;2023-01-23T09:26:12;6.70;99.90
23137;DHT22;11737;50.558;7.258;2023-01-23T09:28:41;6.90;99.90
23137;DHT22;11737;50.558;7.258;2023-01-23T09:31:11;7.10;99.90
23137;DHT22;11737;50.558;7.258;2023-01-23T09:33:39;7.10;99.90
23137;DHT22;11737;50.558;7.258;2023-01-23T09:36:07;7.10;99.90
23137;DHT22;11737;50.558;7.258;2023-01-23T09:38:35;7.10;99.90
23137;DHT22;11737;50.558;7.258;2023-01-23T09:41:20;7.10;99.90
23137;DHT22;11737;50.558;7.258;2023-01-23T09:46:53;6.90;99.90
23137;DHT22;11737;50.558;7.258;2023-01-23T09:49:37;6.90;99.90
23137;DHT22;11737;50.558;7.258;2023-01-23T09:52:05;7.00;99.90
23137;DHT22;11737;50.558;7.258;2023-01-23T09:57:17;7.10;99.90
23137;DHT22;11737;50.558;7.258;2023-01-23T09:59:54;7.30;99.90
23137;DHT22;11737;50.558;7.258;2023-01-23T10:02:20;7.40;99.90
23137;DHT22;11737;50.558;7.258;2023-01-23T10:04:52;7.40;99.90
23137;DHT22;11737;50.558;7.258;2023-01-23T10:13:29;7.50;99.90
23137;DHT22;11737;50.558;7.258;2023-01-23T10:18:40;7.50;99.90
23137;DHT22;11737;50.558;7.258;2023-01-23T10:26:30;7.60;99.90
23137;DHT22;11737;50.558;7.258;2023-01-23T10:28:57;7.30;99.90
23137;DHT22;11737;50.558;7.258;2023-01-23T10:31:34;7.20;99.90
23137;DHT22;11737;50.558;7.258;2023-01-23T10:40:16;7.00;99.90
23137;DHT22;11737;50.558;7.258;2023-01-23T10:42:45;7.20;99.90
23137;DHT22;11737;50.558;7.258;2023-01-23T10:45:16;7.40;99.90
23137;DHT22;11737;50.558;7.258;2023-01-23T10:47:47;7.40;99.90
23137;DHT22;11737;50.558;7.258;2023-01-23T10:50:15;7.40;99.90
23137;DHT22;11737;50.558;7.258;2023-01-23T10:52:46;7.40;99.90
23137;DHT22;11737;50.558;7.258;2023-01-23T10:57:48;7.70;99.90
23137;DHT22;11737;50.558;7.258;2023-01-23T11:00:34;7.80;99.90
23137;DHT22;11737;50.558;7.258;2023-01-23T11:06:15;7.80;99.90
23137;DHT22;11737;50.558;7.258;2023-01-23T11:08:59;8.00;99.90
23137;DHT22;11737;50.558;7.258;2023-01-23T11:11:33;8.00;99.90
23137;DHT22;11737;50.558;7.258;2023-01-23T11:14:14;7.90;99.90
23137;DHT22;11737;50.558;7.258;2023-01-23T11:16:58;8.10;99.90
23137;DHT22;11737;50.558;7.258;2023-01-23T11:19:19;8.10;99.90
23137;DHT22;11737;50.558;7.258;2023-01-23T11:21:53;8.10;99.90
23137;DHT22;11737;50.558;7.258;2023-01-23T11:27:16;8.30;99.90
23137;DHT22;11737;50.558;7.258;2023-01-23T11:35:59;8.10;99.90
23137;DHT22;11737;50.558;7.258;2023-01-23T11:38:40;8.20;99.90
23137;DHT22;11737;50.558;7.258;2023-01-23T11:41:10;8.10;99.90
23137;DHT22;11737;50.558;7.258;2023-01-23T11:43:38;8.10;99.90
23137;DHT22;11737;50.558;7.258;2023-01-23T11:49:18;8.10;99.90
23137;DHT22;11737;50.558;7.258;2023-01-23T12:03:29;7.90;99.90
23137;DHT22;11737;50.558;7.258;2023-01-23T12:09:37;7.90;99.90
23137;DHT22;11737;50.558;7.258;2023-01-23T12:11:19;7.90;99.90
23137;DHT22;11737;50.558;7.258;2023-01-23T12:22:14;7.90;99.90
23137;DHT22;11737;50.558;7.258;2023-01-23T12:27:48;8.00;99.90
23137;DHT22;11737;50.558;7.258;2023-01-23T12:33:29;8.20;99.90
23137;DHT22;11737;50.558;7.258;2023-01-23T12:38:36;8.40;99.90
23137;DHT22;11737;50.558;7.258;2023-01-23T12:52:08;8.40;99.90
23137;DHT22;11737;50.558;7.258;2023-01-23T12:54:42;8.50;99.90
23137;DHT22;11737;50.558;7.258;2023-01-23T12:57:08;8.50;99.90
23137;DHT22;11737;50.558;7.258;2023-01-23T13:02:33;8.40;99.90
23137;DHT22;11737;50.558;7.258;2023-01-23T13:05:22;8.40;99.90
23137;DHT22;11737;50.558;7.258;2023-01-23T13:08:05;8.50;99.90
23137;DHT22;11737;50.558;7.258;2023-01-23T13:13:47;8.50;99.90
23137;DHT22;11737;50.558;7.258;2023-01-23T13:16:17;8.40;99.90
23137;DHT22;11737;50.558;7.258;2023-01-23T13:18:53;8.50;99.90
23137;DHT22;11737;50.558;7.258;2023-01-23T13:21:29;8.50;99.90
23137;DHT22;11737;50.558;7.258;2023-01-23T13:24:24;8.50;99.90
23137;DHT22;11737;50.558;7.258;2023-01-23T13:26:53;8.40;99.90
23137;DHT22;11737;50.558;7.258;2023-01-23T13:29:47;8.40;99.90
23137;DHT22;11737;50.558;7.258;2023-01-23T13:32:33;8.30;99.90
23137;DHT22;11737;50.558;7.258;2023-01-23T13:35:00;8.30;99.90
23137;DHT22;11737;50.558;7.258;2023-01-23T13:40:22;8.60;99.90
23137;DHT22;11737;50.558;7.258;2023-01-23T13:42:50;8.60;99.90
23137;DHT22;11737;50.558;7.258;2023-01-23T13:45:22;8.50;99.90
23137;DHT22;11737;50.558;7.258;2023-01-23T13:51:18;8.80;99.90
23137;DHT22;11737;50.558;7.258;2023-01-23T13:53:48;8.70;99.90
23137;DHT22;11737;50.558;7.258;2023-01-23T13:56:34;8.60;99.90
23137;DHT22;11737;50.558;7.258;2023-01-23T13:59:14;8.40;99.90
23137;DHT22;11737;50.558;7.258;2023-01-23T14:01:53;8.30;99.90
23137;DHT22;11737;50.558;7.258;2023-01-23T14:04:38;8.30;99.90
23137;DHT22;11737;50.558;7.258;2023-01-23T14:07:31;8.30;99.90
23137;DHT22;11737;50.558;7.258;2023-01-23T14:12:47;8.40;99.90
23137;DHT22;11737;50.558;7.258;2023-01-23T14:15:23;8.30;99.90
23137;DHT22;11737;50.558;7.258;2023-01-23T14:20:52;8.20;99.90
23137;DHT22;11737;50.558;7.258;2023-01-23T14:23:26;8.40;99.90
23137;DHT22;11737;50.558;7.258;2023-01-23T14:25:54;8.50;99.90
23137;DHT22;11737;50.558;7.258;2023-01-23T14:31:06;8.50;99.90
23137;DHT22;11737;50.558;7.258;2023-01-23T14:33:42;8.60;99.90
23137;DHT22;11737;50.558;7.258;2023-01-23T14:36:17;8.60;99.90
23137;DHT22;11737;50.558;7.258;2023-01-23T14:38:47;8.60;99.90
23137;DHT22;11737;50.558;7.258;2023-01-23T14:41:16;8.50;99.90
23137;DHT22;11737;50.558;7.258;2023-01-23T14:43:46;8.40;99.90
23137;DHT22;11737;50.558;7.258;2023-01-23T14:46:18;8.40;99.90
23137;DHT22;11737;50.558;7.258;2023-01-23T14:48:51;8.20;99.90
23137;DHT22;11737;50.558;7.258;2023-01-23T14:51:22;8.30;99.90
23137;DHT22;11737;50.558;7.258;2023-01-23T14:53:58;8.30;99.90
23137;DHT22;11737;50.558;7.258;2023-01-23T14:56:36;8.30;99.90
23137;DHT22;11737;50.558;7.258;2023-01-23T14:59:18;8.30;99.90
23137;DHT22;11737;50.558;7.258;2023-01-23T15:01:35;8.20;99.90
23137;DHT22;11737;50.558;7.258;2023-01-23T15:04:05;8.20;99.90
23137;DHT22;11737;50.558;7.258;2023-01-23T15:06:35;8.30;99.90
23137;DHT22;11737;50.558;7.258;2023-01-23T15:11:54;8.20;99.90
23137;DHT22;11737;50.558;7.258;2023-01-23T15:14:26;8.20;99.90
23137;DHT22;11737;50.558;7.258;2023-01-23T15:17:11;8.20;99.90
23137;DHT22;11737;50.558;7.258;2023-01-23T15:19:34;8.10;99.90
23137;DHT22;11737;50.558;7.258;2023-01-23T15:27:56;8.00;99.90
23137;DHT22;11737;50.558;7.258;2023-01-23T15:35:51;7.90;99.90
23137;DHT22;11737;50.558;7.258;2023-01-23T15:38:20;7.90;99.90
23137;DHT22;11737;50.558;7.258;2023-01-23T15:43:48;7.90;99.90
23137;DHT22;11737;50.558;7.258;2023-01-23T15:46:15;7.80;99.90
23137;DHT22;11737;50.558;7.258;2023-01-23T15:48:43;7.80;99.90
23137;DHT22;11737;50.558;7.258;2023-01-23T15:51:11;7.70;99.90
23137;DHT22;11737;50.558;7.258;2023-01-23T15:53:38;7.70;99.90
23137;DHT22;11737;50.558;7.258;2023-01-23T15:56:07;7.60;99.90
23137;DHT22;11737;50.558;7.258;2023-01-23T15:58:36;7.60;99.90
23137;DHT22;11737;50.558;7.258;2023-01-23T16:01:04;7.60;99.90
23137;DHT22;11737;50.558;7.258;2023-01-23T16:03:31;7.60;99.90
23137;DHT22;11737;50.558;7.258;2023-01-23T16:05:59;7.50;99.90
23137;DHT22;11737;50.558;7.258;2023-01-23T16:08:26;7.50;99.90
23137;DHT22;11737;50.558;7.258;2023-01-23T16:10:54;7.50;99.90
23137;DHT22;11737;50.558;7.258;2023-01-23T16:13:22;7.40;99.90
23137;DHT22;11737;50.558;7.258;2023-01-23T16:15:50;7.50;99.90
23137;DHT22;11737;50.558;7.258;2023-01-23T16:18:17;7.40;99.90
23137;DHT22;11737;50.558;7.258;2023-01-23T16:20:45;7.40;99.90
23137;DHT22;11737;50.558;7.258;2023-01-23T16:23:18;7.40;99.90
23137;DHT22;11737;50.558;7.258;2023-01-23T16:25:46;7.50;99.90
23137;DHT22;11737;50.558;7.258;2023-01-23T16:31:03;7.50;99.90
23137;DHT22;11737;50.558;7.258;2023-01-23T16:33:30;7.50;99.90
23137;DHT22;11737;50.558;7.258;2023-01-23T16:35:58;7.40;99.90
23137;DHT22;11737;50.558;7.258;2023-01-23T16:38:27;7.50;99.90
23137;DHT22;11737;50.558;7.258;2023-01-23T16:40:57;7.50;99.90
23137;DHT22;11737;50.558;7.258;2023-01-23T16:43:25;7.50;99.90
23137;DHT22;11737;50.558;7.258;2023-01-23T16:45:53;7.50;99.90
23137;DHT22;11737;50.558;7.258;2023-01-23T16:48:27;7.60;99.90
23137;DHT22;11737;50.558;7.258;2023-01-23T16:50:53;7.60;99.90
23137;DHT22;11737;50.558;7.258;2023-01-23T16:56:22;7.60;99.90
23137;DHT22;11737;50.558;7.258;2023-01-23T16:58:50;7.70;99.90
23137;DHT22;11737;50.558;7.258;2023-01-23T17:01:19;7.60;99.90
23137;DHT22;11737;50.558;7.258;2023-01-23T17:04:00;7.60;99.90
23137;DHT22;11737;50.558;7.258;2023-01-23T17:06:24;7.60;99.90
23137;DHT22;11737;50.558;7.258;2023-01-23T17:08:52;7.40;99.90
23137;DHT22;11737;50.558;7.258;2023-01-23T17:11:26;7.40;99.90
23137;DHT22;11737;50.558;7.258;2023-01-23T17:14:12;7.50;99.90
23137;DHT22;11737;50.558;7.258;2023-01-23T17:16:28;7.60;99.90
23137;DHT22;11737;50.558;7.258;2023-01-23T17:18:58;7.50;99.90
23137;DHT22;11737;50.558;7.258;2023-01-23T17:21:29;7.50;99.90
23137;DHT22;11737;50.558;7.258;2023-01-23T17:23:56;7.40;99.90
23137;DHT22;11737;50.558;7.258;2023-01-23T17:26:24;7.20;99.90
23137;DHT22;11737;50.558;7.258;2023-01-23T17:28:51;7.20;99.90
23137;DHT22;11737;50.558;7.258;2023-01-23T17:31:24;7.20;99.90
23137;DHT22;11737;50.558;7.258;2023-01-23T17:33:52;7.40;99.90
23137;DHT22;11737;50.558;7.258;2023-01-23T17:36:21;7.60;99.90
23137;DHT22;11737;50.558;7.258;2023-01-23T17:38:51;7.60;99.90
23137;DHT22;11737;50.558;7.258;2023-01-23T17:41:19;7.60;99.90
23137;DHT22;11737;50.558;7.258;2023-01-23T17:43:47;7.50;99.90
23137;DHT22;11737;50.558;7.258;2023-01-23T17:46:27;7.40;99.90
23137;DHT22;11737;50.558;7.258;2023-01-23T17:48:56;7.50;99.90
23137;DHT22;11737;50.558;7.258;2023-01-23T17:51:24;7.50;99.90
23137;DHT22;11737;50.558;7.258;2023-01-23T17:53:52;7.40;99.90
23137;DHT22;11737;50.558;7.258;2023-01-23T17:56:20;7.50;99.90
23137;DHT22;11737;50.558;7.258;2023-01-23T17:58:48;7.40;99.90
23137;DHT22;11737;50.558;7.258;2023-01-23T18:01:19;7.30;99.90
23137;DHT22;11737;50.558;7.258;2023-01-23T18:03:48;7.30;99.90
23137;DHT22;11737;50.558;7.258;2023-01-23T18:06:16;7.20;99.90
23137;DHT22;11737;50.558;7.258;2023-01-23T18:08:44;7.30;99.90
23137;DHT22;11737;50.558;7.258;2023-01-23T18:11:22;7.30;99.90
23137;DHT22;11737;50.558;7.258;2023-01-23T18:13:54;7.40;99.90
23137;DHT22;11737;50.558;7.258;2023-01-23T18:16:31;7.30;99.90
23137;DHT22;11737;50.558;7.258;2023-01-23T18:19:06;7.40;99.90
23137;DHT22;11737;50.558;7.258;2023-01-23T18:21:30;7.40;99.90
23137;DHT22;11737;50.558;7.258;2023-01-23T18:23:58;7.40;99.90
23137;DHT22;11737;50.558;7.258;2023-01-23T18:26:37;7.30;99.90
23137;DHT22;11737;50.558;7.258;2023-01-23T18:29:25;7.20;99.90
23137;DHT22;11737;50.558;7.258;2023-01-23T18:40:42;7.30;99.90
23137;DHT22;11737;50.558;7.258;2023-01-23T18:43:37;7.10;99.90
23137;DHT22;11737;50.558;7.258;2023-01-23T18:46:13;7.10;99.90